createdAt,value
2023-02-22T00:00:53.965Z,0.00
2023-02-22T00:01:54.028Z,0.00
2023-02-22T00:02:54.033Z,0.00
2023-02-22T00:03:54.010Z,0.00
2023-02-22T00:04:54.020Z,0.00
2023-02-22T00:05:54.032Z,0.00
2023-02-22T00:06:54.045Z,0.00
2023-02-22T00:07:54.060Z,0.00
2023-02-22T00:08:54.072Z,0.00
2023-02-22T00:09:54.088Z,0.00
2023-02-22T00:10:54.107Z,0.00
2023-02-22T00:11:54.114Z,0.00
2023-02-22T00:12:54.126Z,0.00
2023-02-22T00:13:54.142Z,0.00
2023-02-22T00:14:54.151Z,0.00
2023-02-22T00:15:54.166Z,0.00
2023-02-22T00:16:54.178Z,0.00
2023-02-22T00:17:54.193Z,0.00
2023-02-22T00:18:54.205Z,0.00
2023-02-22T00:19:54.217Z,0.00
2023-02-22T00:20:54.236Z,0.00
2023-02-22T00:21:54.250Z,0.00
2023-02-22T00:22:54.259Z,0.00
2023-02-22T00:23:54.271Z,0.00
2023-02-22T00:24:54.287Z,0.00
2023-02-22T00:25:54.299Z,0.00
2023-02-22T00:26:54.312Z,0.00
2023-02-22T00:27:54.322Z,0.00
2023-02-22T00:28:54.357Z,0.00
2023-02-22T00:29:54.351Z,0.00
2023-02-22T00:30:54.361Z,0.00
2023-02-22T00:31:54.536Z,0.00
2023-02-22T00:32:54.386Z,0.00
2023-02-22T00:33:54.401Z,0.00
2023-02-22T00:34:54.412Z,0.00
2023-02-22T00:35:54.425Z,0.00
2023-02-22T00:36:54.440Z,0.00
2023-02-22T00:37:54.455Z,0.00
2023-02-22T00:38:54.466Z,0.00
2023-02-22T00:39:54.476Z,0.00
2023-02-22T00:40:54.490Z,0.00
2023-02-22T00:41:54.569Z,0.00
2023-02-22T00:42:54.516Z,0.00
2023-02-22T00:43:54.533Z,0.00
2023-02-22T00:44:54.547Z,0.00
2023-02-22T00:45:54.578Z,0.00
2023-02-22T00:46:54.569Z,0.00
2023-02-22T00:47:54.581Z,0.00
2023-02-22T00:48:54.594Z,0.00
2023-02-22T00:49:54.606Z,0.00
2023-02-22T00:50:54.623Z,0.00
2023-02-22T00:51:54.640Z,0.00
2023-02-22T00:52:54.651Z,0.00
2023-02-22T00:53:54.658Z,0.00
2023-02-22T00:54:54.672Z,0.00
2023-02-22T00:55:54.688Z,0.00
2023-02-22T00:56:54.713Z,0.00
2023-02-22T00:57:54.708Z,0.00
2023-02-22T00:58:54.723Z,0.00
2023-02-22T00:59:54.735Z,0.00
2023-02-22T01:00:54.778Z,0.00
2023-02-22T01:01:54.791Z,0.00
2023-02-22T01:02:54.776Z,0.00
2023-02-22T01:03:54.784Z,0.00
2023-02-22T01:04:54.798Z,0.00
2023-02-22T01:05:54.808Z,0.00
2023-02-22T01:06:54.821Z,0.00
2023-02-22T01:07:54.832Z,0.00
2023-02-22T01:08:54.844Z,0.00
2023-02-22T01:09:54.857Z,0.00
2023-02-22T01:10:54.870Z,0.00
2023-02-22T01:11:54.883Z,0.00
2023-02-22T01:12:54.906Z,0.00
2023-02-22T01:13:54.906Z,0.00
2023-02-22T01:14:54.920Z,0.00
2023-02-22T01:15:54.947Z,0.00
2023-02-22T01:16:54.988Z,0.00
2023-02-22T01:17:54.962Z,0.00
2023-02-22T01:18:54.974Z,0.00
2023-02-22T01:19:54.980Z,0.00
2023-02-22T01:20:55.005Z,0.00
2023-02-22T01:21:55.021Z,0.00
2023-02-22T01:22:55.036Z,0.00
2023-02-22T01:23:55.063Z,0.00
2023-02-22T01:24:55.042Z,0.00
2023-02-22T01:25:55.053Z,0.00
2023-02-22T01:26:55.064Z,0.00
2023-02-22T01:27:55.082Z,0.00
2023-02-22T01:28:55.094Z,0.00
2023-02-22T01:29:55.107Z,0.00
2023-02-22T01:30:55.194Z,0.00
2023-02-22T01:31:55.170Z,0.00
2023-02-22T01:32:55.139Z,0.00
2023-02-22T01:33:55.158Z,0.00
2023-02-22T01:34:55.168Z,0.00
2023-02-22T01:35:55.175Z,0.00
2023-02-22T01:36:55.198Z,0.00
2023-02-22T01:37:55.199Z,0.00
2023-02-22T01:38:55.208Z,0.00
2023-02-22T01:39:55.222Z,0.00
2023-02-22T01:40:55.237Z,0.00
2023-02-22T01:41:55.245Z,0.00
2023-02-22T01:42:55.257Z,0.00
2023-02-22T01:43:55.270Z,0.00
2023-02-22T01:44:55.280Z,0.00
2023-02-22T01:45:55.346Z,0.00
2023-02-22T01:46:55.307Z,0.00
2023-02-22T01:47:55.322Z,0.00
2023-02-22T01:48:55.333Z,0.00
2023-02-22T01:49:55.342Z,0.00
2023-02-22T01:50:55.350Z,0.00
2023-02-22T01:51:55.363Z,0.00
2023-02-22T01:52:55.378Z,0.00
2023-02-22T01:53:55.393Z,0.00
2023-02-22T01:54:55.401Z,0.00
2023-02-22T01:55:55.413Z,0.00
2023-02-22T01:56:55.422Z,0.00
2023-02-22T01:57:55.435Z,0.00
2023-02-22T01:58:55.454Z,0.00
2023-02-22T01:59:55.458Z,0.00
2023-02-22T02:00:55.473Z,0.00
2023-02-22T02:01:55.484Z,0.00
2023-02-22T02:02:55.497Z,0.00
2023-02-22T02:03:55.526Z,0.00
2023-02-22T02:04:55.544Z,0.00
2023-02-22T02:05:55.529Z,0.00
2023-02-22T02:06:55.551Z,0.00
2023-02-22T02:07:55.558Z,0.00
2023-02-22T02:08:55.580Z,0.00
2023-02-22T02:09:55.588Z,0.00
2023-02-22T02:10:55.600Z,0.00
2023-02-22T02:11:55.601Z,0.00
2023-02-22T02:12:55.616Z,0.00
2023-02-22T02:13:55.631Z,0.00
2023-02-22T02:14:55.635Z,0.00
2023-02-22T02:15:55.651Z,0.00
2023-02-22T02:16:55.693Z,0.00
2023-02-22T02:17:55.677Z,0.00
2023-02-22T02:18:55.686Z,0.00
2023-02-22T02:19:55.699Z,0.00
2023-02-22T02:20:55.712Z,0.00
2023-02-22T02:21:55.721Z,0.00
2023-02-22T02:22:55.739Z,0.00
2023-02-22T02:23:55.745Z,0.00
2023-02-22T02:24:55.764Z,0.00
2023-02-22T02:25:55.769Z,0.00
2023-02-22T02:26:55.781Z,0.00
2023-02-22T02:27:55.797Z,0.00
2023-02-22T02:28:55.805Z,0.00
2023-02-22T02:29:55.828Z,0.00
2023-02-22T02:30:55.830Z,0.00
2023-02-22T02:31:56.010Z,0.00
2023-02-22T02:32:55.858Z,0.00
2023-02-22T02:33:55.865Z,0.00
2023-02-22T02:34:55.876Z,0.00
2023-02-22T02:35:55.887Z,0.00
2023-02-22T02:36:55.904Z,0.00
2023-02-22T02:37:55.916Z,0.00
2023-02-22T02:38:55.973Z,0.00
2023-02-22T02:39:55.976Z,0.00
2023-02-22T02:40:55.945Z,0.00
2023-02-22T02:41:55.964Z,0.00
2023-02-22T02:42:55.973Z,0.00
2023-02-22T02:43:55.979Z,0.00
2023-02-22T02:44:55.997Z,0.00
2023-02-22T02:45:56.006Z,0.00
2023-02-22T02:46:56.097Z,0.00
2023-02-22T02:47:56.028Z,0.00
2023-02-22T02:48:56.042Z,0.00
2023-02-22T02:49:56.058Z,0.00
2023-02-22T02:50:56.160Z,0.00
2023-02-22T02:51:56.076Z,0.00
2023-02-22T02:52:56.085Z,0.00
2023-02-22T02:53:56.095Z,0.00
2023-02-22T02:54:56.107Z,0.00
2023-02-22T02:55:56.192Z,0.00
2023-02-22T02:56:56.142Z,0.00
2023-02-22T02:57:56.145Z,0.00
2023-02-22T02:58:56.155Z,0.00
2023-02-22T02:59:56.168Z,0.00
2023-02-22T03:00:56.179Z,0.00
2023-02-22T03:01:56.228Z,0.00
2023-02-22T03:02:56.202Z,0.00
2023-02-22T03:03:56.213Z,0.00
2023-02-22T03:04:56.228Z,0.00
2023-02-22T03:05:56.236Z,0.00
2023-02-22T03:06:56.250Z,0.00
2023-02-22T03:07:56.261Z,0.00
2023-02-22T03:08:56.271Z,0.00
2023-02-22T03:09:56.284Z,0.00
2023-02-22T03:10:56.294Z,0.00
2023-02-22T03:11:56.308Z,0.00
2023-02-22T03:12:56.319Z,0.00
2023-02-22T03:13:56.329Z,0.00
2023-02-22T03:14:56.345Z,0.00
2023-02-22T03:15:56.353Z,0.00
2023-02-22T03:16:56.369Z,0.00
2023-02-22T03:17:56.376Z,0.00
2023-02-22T03:18:56.386Z,0.00
2023-02-22T03:19:56.398Z,0.00
2023-02-22T03:20:56.417Z,0.00
2023-02-22T03:21:56.426Z,0.00
2023-02-22T03:22:56.444Z,0.00
2023-02-22T03:23:56.448Z,0.00
2023-02-22T03:24:56.463Z,0.00
2023-02-22T03:25:56.475Z,0.00
2023-02-22T03:26:56.500Z,0.00
2023-02-22T03:27:56.491Z,0.00
2023-02-22T03:28:56.628Z,0.00
2023-02-22T03:29:56.521Z,0.00
2023-02-22T03:30:56.547Z,0.00
2023-02-22T03:31:56.573Z,0.00
2023-02-22T03:32:56.554Z,0.00
2023-02-22T03:33:56.570Z,0.00
2023-02-22T03:34:56.578Z,0.00
2023-02-22T03:35:56.588Z,0.00
2023-02-22T03:36:56.605Z,0.00
2023-02-22T03:37:56.610Z,0.00
2023-02-22T03:38:56.626Z,0.00
2023-02-22T03:39:56.633Z,0.00
2023-02-22T03:40:56.647Z,0.00
2023-02-22T03:41:56.661Z,0.00
2023-02-22T03:42:56.674Z,0.00
2023-02-22T03:43:56.684Z,0.00
2023-02-22T03:44:56.695Z,0.00
2023-02-22T03:45:56.709Z,0.00
2023-02-22T03:46:56.759Z,0.00
2023-02-22T03:47:56.728Z,0.00
2023-02-22T03:48:56.740Z,0.00
2023-02-22T03:49:56.758Z,0.00
2023-02-22T03:50:56.762Z,0.00
2023-02-22T03:51:56.774Z,0.00
2023-02-22T03:52:56.788Z,0.00
2023-02-22T03:53:56.803Z,0.00
2023-02-22T03:54:56.810Z,0.00
2023-02-22T03:55:56.824Z,0.00
2023-02-22T03:56:56.862Z,0.00
2023-02-22T03:57:56.856Z,0.00
2023-02-22T03:58:56.856Z,0.00
2023-02-22T03:59:56.870Z,0.00
2023-02-22T04:00:56.879Z,0.00
2023-02-22T04:01:56.911Z,0.00
2023-02-22T04:02:56.918Z,0.00
2023-02-22T04:03:56.917Z,0.00
2023-02-22T04:04:56.987Z,0.00
2023-02-22T04:05:56.937Z,0.00
2023-02-22T04:06:56.953Z,0.00
2023-02-22T04:07:56.966Z,0.00
2023-02-22T04:08:56.973Z,0.00
2023-02-22T04:09:56.989Z,0.00
2023-02-22T04:10:57.005Z,0.00
2023-02-22T04:11:57.013Z,0.00
2023-02-22T04:12:57.023Z,0.00
2023-02-22T04:13:57.033Z,0.00
2023-02-22T04:14:57.045Z,0.00
2023-02-22T04:15:57.095Z,0.00
2023-02-22T04:16:57.075Z,0.00
2023-02-22T04:17:57.078Z,0.00
2023-02-22T04:18:57.099Z,0.00
2023-02-22T04:19:57.114Z,0.00
2023-02-22T04:20:57.117Z,0.00
2023-02-22T04:21:57.128Z,0.00
2023-02-22T04:22:57.183Z,0.00
2023-02-22T04:23:57.157Z,0.00
2023-02-22T04:24:57.169Z,0.00
2023-02-22T04:25:57.178Z,0.00
2023-02-22T04:26:57.190Z,0.00
2023-02-22T04:27:57.202Z,0.00
2023-02-22T04:28:57.215Z,0.00
2023-02-22T04:29:57.224Z,0.00
2023-02-22T04:30:57.264Z,0.00
2023-02-22T04:31:57.290Z,0.00
2023-02-22T04:32:57.267Z,0.00
2023-02-22T04:33:57.274Z,0.00
2023-02-22T04:34:57.282Z,0.00
2023-02-22T04:35:57.294Z,0.00
2023-02-22T04:36:57.310Z,0.00
2023-02-22T04:37:57.321Z,0.00
2023-02-22T04:38:57.329Z,0.00
2023-02-22T04:39:57.345Z,0.00
2023-02-22T04:40:57.359Z,0.00
2023-02-22T04:41:57.366Z,0.00
2023-02-22T04:42:57.375Z,0.00
2023-02-22T04:43:57.392Z,0.00
2023-02-22T04:44:57.418Z,0.00
2023-02-22T04:45:57.426Z,0.00
2023-02-22T04:46:57.428Z,0.00
2023-02-22T04:47:57.439Z,0.00
2023-02-22T04:48:57.459Z,0.00
2023-02-22T04:49:57.469Z,0.00
2023-02-22T04:50:57.483Z,0.00
2023-02-22T04:51:57.492Z,0.00
2023-02-22T04:52:57.502Z,0.00
2023-02-22T04:53:57.518Z,0.00
2023-02-22T04:54:57.519Z,0.00
2023-02-22T04:55:57.531Z,0.00
2023-02-22T04:56:57.545Z,0.00
2023-02-22T04:57:57.555Z,0.00
2023-02-22T04:58:57.577Z,0.00
2023-02-22T04:59:57.586Z,0.00
2023-02-22T05:00:57.594Z,0.00
2023-02-22T05:01:57.608Z,0.00
2023-02-22T05:02:57.675Z,0.00
2023-02-22T05:03:57.628Z,0.00
2023-02-22T05:04:57.702Z,0.00
2023-02-22T05:05:57.654Z,0.00
2023-02-22T05:06:57.665Z,0.00
2023-02-22T05:07:57.677Z,0.00
2023-02-22T05:08:57.687Z,0.00
2023-02-22T05:09:57.704Z,0.00
2023-02-22T05:10:57.725Z,0.00
2023-02-22T05:11:57.723Z,0.00
2023-02-22T05:12:57.734Z,0.00
2023-02-22T05:13:57.751Z,0.00
2023-02-22T05:14:57.761Z,0.00
2023-02-22T05:15:57.806Z,0.00
2023-02-22T05:16:57.782Z,0.00
2023-02-22T05:17:57.797Z,0.00
2023-02-22T05:18:57.806Z,0.00
2023-02-22T05:19:57.819Z,0.00
2023-02-22T05:20:57.831Z,0.00
2023-02-22T05:21:57.845Z,0.00
2023-02-22T05:22:57.857Z,0.00
2023-02-22T05:23:57.869Z,0.00
2023-02-22T05:24:57.881Z,0.00
2023-02-22T05:25:57.896Z,0.00
2023-02-22T05:26:57.903Z,0.00
2023-02-22T05:27:57.914Z,0.00
2023-02-22T05:28:57.927Z,0.00
2023-02-22T05:29:57.941Z,0.00
2023-02-22T05:30:57.969Z,0.00
2023-02-22T05:31:58.089Z,0.00
2023-02-22T05:32:57.994Z,0.00
2023-02-22T05:33:57.987Z,0.00
2023-02-22T05:34:58.000Z,0.00
2023-02-22T05:35:58.019Z,0.00
2023-02-22T05:36:58.024Z,0.00
2023-02-22T05:37:58.042Z,0.00
2023-02-22T05:38:58.053Z,0.00
2023-02-22T05:39:58.060Z,0.00
2023-02-22T05:40:58.074Z,0.00
2023-02-22T05:41:58.087Z,0.00
2023-02-22T05:42:58.103Z,0.00
2023-02-22T05:43:58.118Z,0.00
2023-02-22T05:44:58.121Z,0.00
2023-02-22T05:45:58.137Z,0.00
2023-02-22T05:46:58.146Z,0.00
2023-02-22T05:47:58.177Z,0.00
2023-02-22T05:48:58.170Z,0.00
2023-02-22T05:49:58.185Z,0.00
2023-02-22T05:50:58.203Z,0.00
2023-02-22T05:51:58.206Z,0.00
2023-02-22T05:52:58.220Z,0.00
2023-02-22T05:53:58.234Z,0.00
2023-02-22T05:54:58.244Z,0.00
2023-02-22T05:55:58.269Z,0.00
2023-02-22T05:56:58.268Z,0.00
2023-02-22T05:57:58.278Z,0.00
2023-02-22T05:58:58.290Z,0.00
2023-02-22T05:59:58.305Z,0.00
2023-02-22T06:00:58.314Z,0.00
2023-02-22T06:01:58.360Z,0.00
2023-02-22T06:02:58.339Z,0.00
2023-02-22T06:03:58.354Z,0.00
2023-02-22T06:04:58.371Z,0.00
2023-02-22T06:05:58.378Z,0.00
2023-02-22T06:06:58.387Z,5.63
2023-02-22T06:07:58.402Z,5.63
2023-02-22T06:08:58.421Z,5.63
2023-02-22T06:09:58.427Z,5.63
2023-02-22T06:10:58.437Z,5.63
2023-02-22T06:11:58.448Z,5.63
2023-02-22T06:12:58.460Z,5.63
2023-02-22T06:13:58.473Z,5.63
2023-02-22T06:14:58.483Z,11.25
2023-02-22T06:15:58.529Z,11.25
2023-02-22T06:16:58.508Z,11.25
2023-02-22T06:17:58.521Z,11.25
2023-02-22T06:18:58.531Z,11.25
2023-02-22T06:19:58.552Z,11.25
2023-02-22T06:20:58.570Z,11.25
2023-02-22T06:21:58.571Z,16.88
2023-02-22T06:22:58.670Z,16.88
2023-02-22T06:23:58.597Z,16.88
2023-02-22T06:24:58.606Z,16.88
2023-02-22T06:25:58.630Z,22.50
2023-02-22T06:26:58.633Z,22.50
2023-02-22T06:27:58.647Z,22.50
2023-02-22T06:28:58.660Z,22.50
2023-02-22T06:29:58.667Z,22.50
2023-02-22T06:30:58.680Z,22.50
2023-02-22T06:31:58.757Z,28.13
2023-02-22T06:32:58.724Z,28.13
2023-02-22T06:33:58.718Z,28.13
2023-02-22T06:34:58.728Z,33.75
2023-02-22T06:35:58.741Z,33.75
2023-02-22T06:36:59.985Z,33.75
2023-02-22T06:37:58.769Z,33.75
2023-02-22T06:38:58.778Z,33.75
2023-02-22T06:40:02.735Z,33.75
2023-02-22T06:40:58.812Z,39.38
2023-02-22T06:41:58.831Z,39.38
2023-02-22T06:42:58.827Z,39.38
2023-02-22T06:43:58.839Z,45.00
2023-02-22T06:44:58.852Z,45.00
2023-02-22T06:45:58.887Z,45.00
2023-02-22T06:46:58.876Z,45.00
2023-02-22T06:47:58.892Z,45.00
2023-02-22T06:48:58.904Z,50.63
2023-02-22T06:49:58.918Z,50.63
2023-02-22T06:50:58.935Z,56.25
2023-02-22T06:51:58.940Z,56.25
2023-02-22T06:52:58.955Z,56.25
2023-02-22T06:53:58.966Z,56.25
2023-02-22T06:54:58.978Z,56.25
2023-02-22T06:55:58.990Z,61.88
2023-02-22T06:56:59.013Z,61.88
2023-02-22T06:57:59.024Z,61.88
2023-02-22T06:58:59.887Z,67.50
2023-02-22T06:59:59.043Z,67.50
2023-02-22T07:00:59.144Z,73.13
2023-02-22T07:01:59.066Z,73.13
2023-02-22T07:02:59.116Z,78.75
2023-02-22T07:03:59.090Z,78.75
2023-02-22T07:04:59.106Z,78.75
2023-02-22T07:05:59.123Z,84.38
2023-02-22T07:06:59.135Z,84.38
2023-02-22T07:07:59.153Z,84.38
2023-02-22T07:08:59.161Z,90.00
2023-02-22T07:09:59.175Z,90.00
2023-02-22T07:10:59.187Z,90.00
2023-02-22T07:11:59.196Z,95.63
2023-02-22T07:12:59.208Z,95.63
2023-02-22T07:13:59.223Z,95.63
2023-02-22T07:14:59.238Z,101.25
2023-02-22T07:15:59.289Z,101.25
2023-02-22T07:16:59.261Z,101.25
2023-02-22T07:17:59.274Z,101.25
2023-02-22T07:18:59.304Z,106.88
2023-02-22T07:19:59.322Z,106.88
2023-02-22T07:20:59.324Z,112.50
2023-02-22T07:21:59.525Z,118.13
2023-02-22T07:22:59.345Z,123.75
2023-02-22T07:23:59.365Z,123.75
2023-02-22T07:24:59.383Z,129.38
2023-02-22T07:25:59.381Z,129.38
2023-02-22T07:26:59.394Z,129.38
2023-02-22T07:27:59.406Z,135.00
2023-02-22T07:28:59.422Z,135.00
2023-02-22T07:29:59.432Z,135.00
2023-02-22T07:30:59.451Z,135.00
2023-02-22T07:31:59.520Z,135.00
2023-02-22T07:32:59.498Z,135.00
2023-02-22T07:33:59.485Z,135.00
2023-02-22T07:34:59.504Z,140.63
2023-02-22T07:35:59.529Z,140.63
2023-02-22T07:36:59.526Z,140.63
2023-02-22T07:37:59.540Z,146.25
2023-02-22T07:38:59.553Z,151.88
2023-02-22T07:39:59.578Z,157.50
2023-02-22T07:40:59.587Z,157.50
2023-02-22T07:41:59.592Z,157.50
2023-02-22T07:42:59.620Z,163.13
2023-02-22T07:43:59.628Z,163.13
2023-02-22T07:44:59.632Z,163.13
2023-02-22T07:45:59.664Z,157.50
2023-02-22T07:46:59.666Z,157.50
2023-02-22T07:47:59.673Z,151.88
2023-02-22T07:48:59.693Z,151.88
2023-02-22T07:49:59.700Z,151.88
2023-02-22T07:50:59.714Z,146.25
2023-02-22T07:51:59.730Z,146.25
2023-02-22T07:52:59.748Z,151.88
2023-02-22T07:53:59.755Z,151.88
2023-02-22T07:54:59.767Z,151.88
2023-02-22T07:55:59.782Z,151.88
2023-02-22T07:56:59.800Z,151.88
2023-02-22T07:57:59.808Z,146.25
2023-02-22T07:58:59.823Z,146.25
2023-02-22T07:59:59.837Z,140.63
2023-02-22T08:00:59.852Z,146.25
2023-02-22T08:01:59.869Z,157.50
2023-02-22T08:02:59.879Z,168.75
2023-02-22T08:03:59.940Z,174.38
2023-02-22T08:04:59.909Z,180.00
2023-02-22T08:05:59.922Z,180.00
2023-02-22T08:06:59.934Z,180.00
2023-02-22T08:07:59.964Z,180.00
2023-02-22T08:08:59.960Z,180.00
2023-02-22T08:09:59.977Z,185.63
2023-02-22T08:10:59.997Z,185.63
2023-02-22T08:12:00.006Z,185.63
2023-02-22T08:13:00.016Z,185.63
2023-02-22T08:14:00.034Z,191.25
2023-02-22T08:15:00.052Z,185.63
2023-02-22T08:16:00.057Z,185.63
2023-02-22T08:17:00.126Z,185.63
2023-02-22T08:18:00.107Z,185.63
2023-02-22T08:19:00.115Z,191.25
2023-02-22T08:20:00.145Z,185.63
2023-02-22T08:21:00.125Z,185.63
2023-02-22T08:22:00.144Z,191.25
2023-02-22T08:23:00.157Z,191.25
2023-02-22T08:24:00.179Z,196.88
2023-02-22T08:25:00.199Z,196.88
2023-02-22T08:26:00.199Z,196.88
2023-02-22T08:27:00.212Z,196.88
2023-02-22T08:28:00.227Z,202.50
2023-02-22T08:29:00.241Z,208.13
2023-02-22T08:30:00.262Z,208.13
2023-02-22T08:31:00.275Z,213.75
2023-02-22T08:32:00.405Z,213.75
2023-02-22T08:33:00.361Z,208.13
2023-02-22T08:34:00.319Z,213.75
2023-02-22T08:35:00.325Z,213.75
2023-02-22T08:36:00.343Z,219.38
2023-02-22T08:37:00.358Z,225.00
2023-02-22T08:38:00.377Z,225.00
2023-02-22T08:39:00.516Z,225.00
2023-02-22T08:40:00.397Z,230.63
2023-02-22T08:41:00.418Z,230.63
2023-02-22T08:42:00.429Z,230.63
2023-02-22T08:43:00.444Z,230.63
2023-02-22T08:44:00.460Z,230.63
2023-02-22T08:45:00.474Z,230.63
2023-02-22T08:46:00.515Z,236.25
2023-02-22T08:47:00.500Z,241.88
2023-02-22T08:48:00.511Z,247.50
2023-02-22T08:49:00.525Z,253.13
2023-02-22T08:50:00.540Z,253.13
2023-02-22T08:51:00.567Z,247.50
2023-02-22T08:52:00.569Z,247.50
2023-02-22T08:53:00.585Z,241.88
2023-02-22T08:54:00.606Z,247.50
2023-02-22T08:55:00.618Z,247.50
2023-02-22T08:56:00.626Z,247.50
2023-02-22T08:57:00.640Z,253.13
2023-02-22T08:58:00.660Z,258.75
2023-02-22T08:59:00.671Z,264.38
2023-02-22T09:00:00.683Z,270.00
2023-02-22T09:01:00.708Z,275.63
2023-02-22T09:02:00.744Z,281.25
2023-02-22T09:03:00.760Z,286.88
2023-02-22T09:04:00.827Z,286.88
2023-02-22T09:05:00.759Z,281.25
2023-02-22T09:06:00.806Z,275.63
2023-02-22T09:07:00.788Z,275.63
2023-02-22T09:08:00.802Z,281.25
2023-02-22T09:09:00.819Z,275.63
2023-02-22T09:10:00.844Z,281.25
2023-02-22T09:11:00.846Z,281.25
2023-02-22T09:12:00.862Z,286.88
2023-02-22T09:13:01.192Z,292.50
2023-02-22T09:14:00.897Z,298.13
2023-02-22T09:15:00.906Z,303.75
2023-02-22T09:16:00.923Z,298.13
2023-02-22T09:17:00.943Z,298.13
2023-02-22T09:18:00.961Z,303.75
2023-02-22T09:19:00.969Z,303.75
2023-02-22T09:20:00.996Z,309.38
2023-02-22T09:21:00.997Z,309.38
2023-02-22T09:22:01.016Z,315.00
2023-02-22T09:23:01.035Z,315.00
2023-02-22T09:24:01.048Z,320.63
2023-02-22T09:25:11.261Z,326.25
2023-02-22T09:26:01.085Z,331.88
2023-02-22T09:27:01.101Z,337.50
2023-02-22T09:28:01.111Z,337.50
2023-02-22T09:29:01.123Z,343.13
2023-02-22T09:30:01.137Z,337.50
2023-02-22T09:31:01.157Z,331.88
2023-02-22T09:32:01.280Z,331.88
2023-02-22T09:33:01.399Z,331.88
2023-02-22T09:34:03.282Z,343.13
2023-02-22T09:35:01.219Z,343.13
2023-02-22T09:36:01.240Z,354.38
2023-02-22T09:37:01.245Z,354.38
2023-02-22T09:38:01.268Z,360.00
2023-02-22T09:39:01.288Z,360.00
2023-02-22T09:40:01.361Z,365.63
2023-02-22T09:41:01.307Z,376.88
2023-02-22T09:42:01.323Z,388.13
2023-02-22T09:43:01.335Z,393.75
2023-02-22T09:44:01.360Z,399.38
2023-02-22T09:45:01.367Z,405.00
2023-02-22T09:46:01.407Z,416.25
2023-02-22T09:47:01.400Z,416.25
2023-02-22T09:48:11.626Z,427.50
2023-02-22T09:49:01.446Z,433.13
2023-02-22T09:50:01.449Z,444.38
2023-02-22T09:51:01.492Z,450.00
2023-02-22T09:52:01.500Z,450.00
2023-02-22T09:53:01.496Z,444.38
2023-02-22T09:54:01.511Z,444.38
2023-02-22T09:55:01.526Z,438.75
2023-02-22T09:56:01.545Z,438.75
2023-02-22T09:57:01.561Z,438.75
2023-02-22T09:58:01.586Z,433.13
2023-02-22T09:59:01.591Z,433.13
2023-02-22T10:00:01.615Z,427.50
2023-02-22T10:01:01.627Z,427.50
2023-02-22T10:02:01.642Z,427.50
2023-02-22T10:03:01.681Z,427.50
2023-02-22T10:04:01.745Z,421.88
2023-02-22T10:05:01.720Z,421.88
2023-02-22T10:06:01.705Z,421.88
2023-02-22T10:07:01.722Z,421.88
2023-02-22T10:08:01.738Z,421.88
2023-02-22T10:09:01.754Z,421.88
2023-02-22T10:10:01.802Z,416.25
2023-02-22T10:11:01.790Z,416.25
2023-02-22T10:12:01.806Z,410.63
2023-02-22T10:13:01.821Z,399.38
2023-02-22T10:14:01.840Z,393.75
2023-02-22T10:15:01.850Z,393.75
2023-02-22T10:16:01.869Z,399.38
2023-02-22T10:17:01.888Z,399.38
2023-02-22T10:18:01.907Z,399.38
2023-02-22T10:19:01.932Z,399.38
2023-02-22T10:20:01.933Z,393.75
2023-02-22T10:21:01.951Z,388.13
2023-02-22T10:22:01.967Z,382.50
2023-02-22T10:23:01.988Z,376.88
2023-02-22T10:24:02.032Z,376.88
2023-02-22T10:25:02.018Z,376.88
2023-02-22T10:26:02.041Z,376.88
2023-02-22T10:27:02.048Z,382.50
2023-02-22T10:28:02.068Z,388.13
2023-02-22T10:29:02.086Z,393.75
2023-02-22T10:30:05.576Z,393.75
2023-02-22T10:31:02.242Z,399.38
2023-02-22T10:32:02.183Z,399.38
2023-02-22T10:33:02.156Z,405.00
2023-02-22T10:34:02.168Z,405.00
2023-02-22T10:35:02.186Z,399.38
2023-02-22T10:36:02.206Z,393.75
2023-02-22T10:37:02.219Z,388.13
2023-02-22T10:38:02.245Z,382.50
2023-02-22T10:39:02.255Z,382.50
2023-02-22T10:40:02.275Z,382.50
2023-02-22T10:41:02.292Z,382.50
2023-02-22T10:42:02.303Z,382.50
2023-02-22T10:43:02.323Z,376.88
2023-02-22T10:44:02.336Z,376.88
2023-02-22T10:45:02.352Z,382.50
2023-02-22T10:46:02.396Z,388.13
2023-02-22T10:47:02.390Z,382.50
2023-02-22T10:48:02.401Z,388.13
2023-02-22T10:49:02.422Z,388.13
2023-02-22T10:50:02.461Z,388.13
2023-02-22T10:51:02.456Z,376.88
2023-02-22T10:52:02.473Z,371.25
2023-02-22T10:53:02.497Z,360.00
2023-02-22T10:54:02.504Z,360.00
2023-02-22T10:55:14.474Z,371.25
2023-02-22T10:56:02.566Z,376.88
2023-02-22T10:57:02.555Z,376.88
2023-02-22T10:58:02.574Z,376.88
2023-02-22T10:59:02.701Z,376.88
2023-02-22T11:00:02.605Z,376.88
2023-02-22T11:01:02.637Z,382.50
2023-02-22T11:02:02.631Z,388.13
2023-02-22T11:03:02.664Z,376.88
2023-02-22T11:04:02.674Z,382.50
2023-02-22T11:05:02.750Z,388.13
2023-02-22T11:06:02.702Z,388.13
2023-02-22T11:07:02.720Z,388.13
2023-02-22T11:08:02.738Z,388.13
2023-02-22T11:09:02.745Z,388.13
2023-02-22T11:10:02.767Z,399.38
2023-02-22T11:11:02.780Z,393.75
2023-02-22T11:12:02.794Z,393.75
2023-02-22T11:13:02.810Z,393.75
2023-02-22T11:14:02.831Z,388.13
2023-02-22T11:15:02.841Z,393.75
2023-02-22T11:16:02.889Z,388.13
2023-02-22T11:17:02.875Z,388.13
2023-02-22T11:18:02.893Z,376.88
2023-02-22T11:19:02.917Z,365.63
2023-02-22T11:20:02.930Z,337.50
2023-02-22T11:21:02.940Z,326.25
2023-02-22T11:22:02.969Z,331.88
2023-02-22T11:23:02.973Z,331.88
2023-02-22T11:24:02.990Z,331.88
2023-02-22T11:25:03.010Z,331.88
2023-02-22T11:26:03.023Z,343.13
2023-02-22T11:27:03.039Z,354.38
2023-02-22T11:28:03.057Z,365.63
2023-02-22T11:29:03.073Z,371.25
2023-02-22T11:30:05.575Z,382.50
2023-02-22T11:31:03.187Z,393.75
2023-02-22T11:32:03.198Z,399.38
2023-02-22T11:33:03.162Z,399.38
2023-02-22T11:34:03.168Z,399.38
2023-02-22T11:35:09.081Z,393.75
2023-02-22T11:36:03.186Z,393.75
2023-02-22T11:37:03.206Z,399.38
2023-02-22T11:38:03.225Z,405.00
2023-02-22T11:39:03.239Z,405.00
2023-02-22T11:40:03.251Z,410.63
2023-02-22T11:41:03.264Z,410.63
2023-02-22T11:42:03.281Z,416.25
2023-02-22T11:43:03.303Z,416.25
2023-02-22T11:44:03.311Z,416.25
2023-02-22T11:45:03.327Z,421.88
2023-02-22T11:46:03.406Z,427.50
2023-02-22T11:47:03.360Z,433.13
2023-02-22T11:48:03.387Z,438.75
2023-02-22T11:49:03.399Z,433.13
2023-02-22T11:50:03.410Z,433.13
2023-02-22T11:51:03.427Z,427.50
2023-02-22T11:52:03.445Z,427.50
2023-02-22T11:53:03.462Z,427.50
2023-02-22T11:54:03.477Z,427.50
2023-02-22T11:55:03.499Z,433.13
2023-02-22T11:56:03.510Z,433.13
2023-02-22T11:57:03.529Z,427.50
2023-02-22T11:58:03.543Z,421.88
2023-02-22T11:59:03.580Z,416.25
2023-02-22T12:00:03.581Z,410.63
2023-02-22T12:01:03.596Z,399.38
2023-02-22T12:02:03.613Z,393.75
2023-02-22T12:03:03.627Z,393.75
2023-02-22T12:04:03.746Z,388.13
2023-02-22T12:05:03.671Z,382.50
2023-02-22T12:06:03.683Z,376.88
2023-02-22T12:07:03.699Z,376.88
2023-02-22T12:08:13.867Z,376.88
2023-02-22T12:09:03.729Z,376.88
2023-02-22T12:10:03.745Z,388.13
2023-02-22T12:11:03.765Z,393.75
2023-02-22T12:12:03.785Z,405.00
2023-02-22T12:13:03.796Z,416.25
2023-02-22T12:14:03.814Z,427.50
2023-02-22T12:15:03.831Z,433.13
2023-02-22T12:16:03.904Z,438.75
2023-02-22T12:17:03.864Z,444.38
2023-02-22T12:18:03.879Z,438.75
2023-02-22T12:19:03.896Z,433.13
2023-02-22T12:20:03.913Z,433.13
2023-02-22T12:21:03.930Z,433.13
2023-02-22T12:22:03.947Z,427.50
2023-02-22T12:23:03.974Z,421.88
2023-02-22T12:24:03.983Z,416.25
2023-02-22T12:25:09.550Z,416.25
2023-02-22T12:26:04.020Z,410.63
2023-02-22T12:27:05.727Z,405.00
2023-02-22T12:28:09.975Z,405.00
2023-02-22T12:29:04.073Z,405.00
2023-02-22T12:30:04.092Z,405.00
2023-02-22T12:31:04.143Z,399.38
2023-02-22T12:32:04.151Z,393.75
2023-02-22T12:33:06.238Z,388.13
2023-02-22T12:34:04.204Z,376.88
2023-02-22T12:35:04.172Z,371.25
2023-02-22T12:36:04.188Z,365.63
2023-02-22T12:37:04.212Z,365.63
2023-02-22T12:38:04.228Z,365.63
2023-02-22T12:39:06.100Z,365.63
2023-02-22T12:40:04.257Z,360.00
2023-02-22T12:41:04.277Z,354.38
2023-02-22T12:42:04.291Z,348.75
2023-02-22T12:43:04.308Z,343.13
2023-02-22T12:44:04.326Z,337.50
2023-02-22T12:45:06.655Z,331.88
2023-02-22T12:46:04.425Z,337.50
2023-02-22T12:47:04.379Z,337.50
2023-02-22T12:48:04.398Z,337.50
2023-02-22T12:49:04.413Z,343.13
2023-02-22T12:50:04.429Z,343.13
2023-02-22T12:51:04.450Z,354.38
2023-02-22T12:52:15.956Z,365.63
2023-02-22T12:53:04.489Z,365.63
2023-02-22T12:54:04.497Z,360.00